Terminal Aerodrome Forecast
Issued by NWS

Home | Current Version | Previous Version | Text Only | Print | Product List | Glossary On
Versions: 1 2 3 4 5 6 7 8 9 10 11 12 13 14 15 16 17 18 19 20 21 22 23
000
FTUS43 KBIS 191251 AAA
TAFDIK
TAF AMD
KDIK 191251Z 1913/2012 00000KT 1/4SM FZFG VV002
     FM191400 13005KT 3/4SM BR OVC005
     FM191500 14006KT 4SM BR SCT012
     FM191700 13009KT P6SM FEW030
     FM191900 13011KT P6SM FEW050 SCT200=

USA.gov is the U.S. government's official web portal to all federal, state and local government web resources and services.